createdAt,value
2023-05-11T00:00:38.335Z,98684.81
2023-05-11T00:03:05.158Z,98688.16
2023-05-11T00:05:31.774Z,98690.31
2023-05-11T00:07:58.391Z,98692.44
2023-05-11T00:10:24.924Z,98694.22
2023-05-11T00:12:51.505Z,98689.81
2023-05-11T00:15:18.040Z,98691.59
2023-05-11T00:17:45.347Z,98690.81
2023-05-11T00:20:11.989Z,98694.44
2023-05-11T00:22:39.332Z,98696.09
2023-05-11T00:25:06.772Z,98693.44
2023-05-11T00:27:33.548Z,98691.88
2023-05-11T00:30:00.384Z,98697.09
2023-05-11T00:32:26.990Z,98681.53
2023-05-11T00:34:53.486Z,98685.88
2023-05-11T00:37:20.142Z,98693.69
2023-05-11T00:39:46.686Z,98678.59
2023-05-11T00:42:13.204Z,98690.22
2023-05-11T00:44:39.803Z,98688.53
2023-05-11T00:47:07.220Z,98684.31
2023-05-11T00:49:33.904Z,98692.13
2023-05-11T00:52:03.089Z,98688.72
2023-05-11T00:54:30.888Z,98686.94
2023-05-11T00:56:57.544Z,98691.38
2023-05-11T00:59:24.213Z,98687.91
2023-05-11T01:01:51.178Z,98672.81
2023-05-11T01:04:17.849Z,98689.69
2023-05-11T01:07:06.449Z,98680.09
2023-05-11T01:09:44.832Z,98687.16
2023-05-11T01:12:44.093Z,98684.63
2023-05-11T01:15:14.372Z,98673.63
2023-05-11T01:18:26.533Z,98691.69
2023-05-11T01:20:58.461Z,98684.00
2023-05-11T01:24:03.927Z,98683.88
2023-05-11T01:26:47.125Z,98692.91
2023-05-11T01:29:49.243Z,98692.78
2023-05-11T01:32:20.404Z,98687.72
2023-05-11T01:34:48.855Z,98698.19
2023-05-11T01:37:22.938Z,98682.44
2023-05-11T01:39:54.359Z,98686.66
2023-05-11T01:42:26.281Z,98678.53
2023-05-11T01:44:55.317Z,98684.97
2023-05-11T01:47:25.149Z,98660.78
2023-05-11T01:49:54.192Z,98669.03
2023-05-11T01:52:23.540Z,98684.13
2023-05-11T01:54:52.849Z,98677.47
2023-05-11T01:57:21.302Z,98693.00
2023-05-11T01:59:50.215Z,98681.06
2023-05-11T02:02:18.692Z,98684.34
2023-05-11T02:04:46.565Z,98681.31
2023-05-11T02:07:14.907Z,98699.25
2023-05-11T02:09:42.818Z,98695.25
2023-05-11T02:12:11.386Z,98696.94
2023-05-11T02:14:40.369Z,98697.56
2023-05-11T02:17:08.783Z,98703.72
2023-05-11T02:19:37.635Z,98705.50
2023-05-11T02:22:06.008Z,98702.09
2023-05-11T02:24:33.850Z,98696.00
2023-05-11T02:27:02.123Z,98699.47
2023-05-11T02:29:29.125Z,98701.28
2023-05-11T02:32:09.732Z,98694.41
2023-05-11T02:34:43.333Z,98705.75
2023-05-11T02:37:18.490Z,98697.06
2023-05-11T02:39:48.360Z,98704.03
2023-05-11T02:42:20.966Z,98698.88
2023-05-11T02:45:04.944Z,98703.28
2023-05-11T02:47:39.438Z,98702.47
2023-05-11T02:50:09.028Z,98706.91
2023-05-11T02:52:43.172Z,98709.53
2023-05-11T02:55:11.904Z,98699.91
2023-05-11T02:57:39.004Z,98699.06
2023-05-11T03:00:10.349Z,98695.94
2023-05-11T03:02:37.117Z,98698.44
2023-05-11T03:05:05.171Z,98703.53
2023-05-11T03:07:33.312Z,98700.88
2023-05-11T03:10:00.843Z,98680.63
2023-05-11T03:12:33.926Z,98701.84
2023-05-11T03:15:04.944Z,98702.78
2023-05-11T03:17:35.222Z,98696.75
2023-05-11T03:20:04.117Z,98696.03
2023-05-11T03:22:31.724Z,98690.00
2023-05-11T03:24:59.143Z,98704.56
2023-05-11T03:27:27.585Z,98700.16
2023-05-11T03:29:56.871Z,98701.94
2023-05-11T03:32:24.296Z,98700.25
2023-05-11T03:34:52.182Z,98701.09
2023-05-11T03:37:19.527Z,98686.84
2023-05-11T03:39:48.296Z,98701.34
2023-05-11T03:42:15.584Z,98696.38
2023-05-11T03:44:46.176Z,98708.19
2023-05-11T03:47:14.698Z,98703.22
2023-05-11T03:49:42.420Z,98703.75
2023-05-11T03:52:10.684Z,98703.13
2023-05-11T03:54:37.792Z,98703.84
2023-05-11T03:57:04.643Z,98712.63
2023-05-11T03:59:31.714Z,98710.22
2023-05-11T04:02:01.207Z,98704.06
2023-05-11T04:04:30.625Z,98709.84
2023-05-11T04:06:59.356Z,98723.94
2023-05-11T04:09:26.253Z,98716.97
2023-05-11T04:11:53.115Z,98709.03
2023-05-11T04:14:20.676Z,98715.16
2023-05-11T04:16:47.974Z,98722.88
2023-05-11T04:19:15.497Z,98675.34
2023-05-11T04:21:42.189Z,98719.16
2023-05-11T04:24:09.014Z,98715.56
2023-05-11T04:26:35.573Z,98717.59
2023-05-11T04:29:03.737Z,98715.34
2023-05-11T04:31:30.593Z,98722.31
2023-05-11T04:33:57.749Z,98723.06
2023-05-11T04:36:24.958Z,98717.78
2023-05-11T04:38:53.568Z,98705.19
2023-05-11T04:41:20.772Z,98721.25
2023-05-11T04:43:48.177Z,98719.47
2023-05-11T04:46:15.342Z,98721.03
2023-05-11T04:48:42.355Z,98725.38
2023-05-11T04:51:09.969Z,98709.97
2023-05-11T04:53:42.417Z,98722.63
2023-05-11T04:56:09.451Z,98722.63
2023-05-11T04:58:36.020Z,98724.31
2023-05-11T05:01:05.956Z,98725.16
2023-05-11T05:03:32.625Z,98730.44
2023-05-11T05:05:59.127Z,98704.88
2023-05-11T05:08:25.866Z,98733.84
2023-05-11T05:10:52.467Z,98710.16
2023-05-11T05:13:19.162Z,98730.22
2023-05-11T05:15:45.993Z,98729.38
2023-05-11T05:18:12.756Z,98736.34
2023-05-11T05:20:39.695Z,98735.53
2023-05-11T05:23:06.451Z,98717.66
2023-05-11T05:25:33.990Z,98731.94
2023-05-11T05:28:00.813Z,98730.13
2023-05-11T05:30:27.870Z,98734.47
2023-05-11T05:32:55.179Z,98725.66
2023-05-11T05:35:22.296Z,98727.47
2023-05-11T05:37:49.348Z,98736.25
2023-05-11T05:40:16.857Z,98732.66
2023-05-11T05:42:50.283Z,98727.34
2023-05-11T05:45:20.800Z,98715.50
2023-05-11T05:47:49.051Z,98721.56
2023-05-11T05:50:16.290Z,98734.34
2023-05-11T05:52:43.654Z,98735.19
2023-05-11T05:55:11.643Z,98732.56
2023-05-11T05:57:39.437Z,98717.22
2023-05-11T06:00:09.618Z,98690.31
2023-05-11T06:02:42.376Z,98737.72
2023-05-11T06:05:17.695Z,98722.91
2023-05-11T06:07:51.525Z,98736.66
2023-05-11T06:10:25.101Z,98744.50
2023-05-11T06:12:51.669Z,98721.44
2023-05-11T06:15:18.398Z,98725.66
2023-05-11T06:17:50.003Z,98737.50
2023-05-11T06:20:17.479Z,98747.91
2023-05-11T06:22:44.108Z,98747.91
2023-05-11T06:25:11.624Z,98751.38
2023-05-11T06:27:39.601Z,98750.56
2023-05-11T06:30:07.465Z,98745.38
2023-05-11T06:32:36.359Z,98753.19
2023-05-11T06:35:03.572Z,98747.91
2023-05-11T06:37:30.683Z,98742.97
2023-05-11T06:39:58.960Z,98742.47
2023-05-11T06:42:26.886Z,98733.00
2023-05-11T06:45:04.389Z,98734.81
2023-05-11T06:47:30.969Z,98745.50
2023-05-11T06:49:58.198Z,98718.81
2023-05-11T06:52:24.831Z,98713.13
2023-05-11T06:54:51.958Z,98722.63
2023-05-11T06:57:19.262Z,98715.53
2023-05-11T07:02:09.640Z,98746.72
2023-05-11T07:04:37.178Z,98747.59
2023-05-11T07:07:04.037Z,98752.88
2023-05-11T07:09:30.638Z,98731.41
2023-05-11T07:11:57.773Z,98737.84
2023-05-11T07:14:24.400Z,98735.31
2023-05-11T07:16:53.098Z,98734.25
2023-05-11T07:19:19.709Z,98733.31
2023-05-11T07:21:46.348Z,98721.59
2023-05-11T07:24:13.156Z,98724.22
2023-05-11T07:26:39.669Z,98714.91
2023-05-11T07:29:06.415Z,98721.78
2023-05-11T07:31:35.489Z,98693.56
2023-05-11T07:34:02.795Z,98728.44
2023-05-11T07:36:29.932Z,98708.97
2023-05-11T07:38:57.910Z,98723.28
2023-05-11T07:41:26.815Z,98712.25
2023-05-11T07:43:56.793Z,98707.59
2023-05-11T07:46:23.404Z,98680.56
2023-05-11T07:48:57.397Z,98725.50
2023-05-11T07:51:30.942Z,98728.00
2023-05-11T07:53:57.541Z,98720.19
2023-05-11T07:56:24.323Z,98728.00
2023-05-11T07:58:50.953Z,98719.34
2023-05-11T08:01:17.586Z,98727.41
2023-05-11T08:03:44.399Z,98728.09
2023-05-11T08:06:12.187Z,98725.00
2023-05-11T08:08:39.285Z,98726.44
2023-05-11T08:11:06.090Z,98695.56
2023-05-11T08:13:32.914Z,98716.19
2023-05-11T08:18:18.307Z,98707.50
2023-05-11T08:20:45.043Z,98723.13
2023-05-11T08:23:17.067Z,98718.59
2023-05-11T08:25:51.980Z,98718.34
2023-05-11T08:28:22.233Z,98717.19
2023-05-11T08:30:59.434Z,98719.50
2023-05-11T08:33:37.437Z,98719.28
2023-05-11T08:36:06.961Z,98725.31
2023-05-11T08:38:35.169Z,98700.97
2023-05-11T08:41:02.660Z,98691.34
2023-05-11T08:43:29.502Z,98712.25
2023-05-11T08:46:01.101Z,98704.53
2023-05-11T08:48:29.123Z,98704.94
2023-05-11T08:50:56.265Z,98700.38
2023-05-11T08:53:23.286Z,98706.31
2023-05-11T08:55:51.542Z,98693.63
2023-05-11T08:58:22.104Z,98696.34
2023-05-11T09:00:49.661Z,98701.50
2023-05-11T09:03:17.765Z,98696.97
2023-05-11T09:05:46.963Z,98694.22
2023-05-11T09:08:15.923Z,98697.63
2023-05-11T09:10:45.714Z,98698.31
2023-05-11T09:13:12.727Z,98680.34
2023-05-11T09:15:39.371Z,98699.81
2023-05-11T09:18:09.000Z,98693.44
2023-05-11T09:20:35.723Z,98688.91
2023-05-11T09:23:05.564Z,98682.63
2023-05-11T09:25:42.729Z,98693.00
2023-05-11T09:31:37.583Z,98683.84
2023-05-11T09:34:21.452Z,98686.28
2023-05-11T09:36:54.047Z,98679.28
2023-05-11T09:39:53.202Z,98691.25
2023-05-11T09:42:30.173Z,98683.19
2023-05-11T09:45:06.144Z,98682.09
2023-05-11T09:47:52.920Z,98681.97
2023-05-11T09:50:26.427Z,98684.50
2023-05-11T09:52:53.412Z,98675.59
2023-05-11T09:55:20.423Z,98673.69
2023-05-11T09:57:55.039Z,98671.78
2023-05-11T10:00:22.053Z,98678.66
2023-05-11T10:03:00.974Z,98675.03
2023-05-11T10:05:27.892Z,98669.63
2023-05-11T10:08:05.556Z,98659.78
2023-05-11T10:10:33.978Z,98662.28
2023-05-11T10:13:05.520Z,98669.28
2023-05-11T10:15:35.235Z,98657.63
2023-05-11T10:18:02.290Z,98658.31
2023-05-11T10:20:29.095Z,98663.53
2023-05-11T10:22:56.119Z,98659.88
2023-05-11T10:25:23.634Z,98660.63
2023-05-11T10:27:51.638Z,98662.31
2023-05-11T10:30:18.928Z,98656.88
2023-05-11T10:32:47.210Z,98649.91
2023-05-11T10:35:14.395Z,98650.50
2023-05-11T10:37:45.699Z,98649.56
2023-05-11T10:40:13.285Z,98638.00
2023-05-11T10:42:43.516Z,98642.22
2023-05-11T10:45:22.045Z,98634.28
2023-05-11T10:47:56.315Z,98638.63
2023-05-11T10:50:43.126Z,98646.44
2023-05-11T10:53:19.112Z,98629.72
2023-05-11T10:56:12.446Z,98625.09
2023-05-11T10:59:16.398Z,98623.31
2023-05-11T11:01:43.685Z,98624.09
2023-05-11T11:04:12.638Z,98617.72
2023-05-11T11:06:42.423Z,98617.72
2023-05-11T11:09:14.501Z,98603.38
2023-05-11T11:11:43.168Z,98615.66
2023-05-11T11:14:10.450Z,98612.03
2023-05-11T11:16:37.656Z,98617.94
2023-05-11T11:19:32.029Z,98610.72
2023-05-11T11:22:00.288Z,98566.00
2023-05-11T11:24:53.691Z,98613.38
2023-05-11T11:27:40.189Z,98599.75
2023-05-11T11:30:26.897Z,98605.75
2023-05-11T11:32:55.668Z,98604.81
2023-05-11T11:35:55.682Z,98622.28
2023-05-11T11:38:22.983Z,98616.00
2023-05-11T11:40:53.743Z,98602.75
2023-05-11T11:43:45.791Z,98591.94
2023-05-11T11:46:25.248Z,98606.88
2023-05-11T11:48:54.378Z,98616.38
2023-05-11T11:51:34.285Z,98611.69
2023-05-11T11:54:01.182Z,98604.56
2023-05-11T11:56:30.844Z,98606.25
2023-05-11T11:59:02.809Z,98595.53
2023-05-11T12:01:30.682Z,98605.16
2023-05-11T12:04:20.417Z,98598.91
2023-05-11T12:06:58.865Z,98597.09
2023-05-11T12:09:26.759Z,98603.13
2023-05-11T12:14:22.666Z,98603.84
2023-05-11T12:17:03.437Z,98611.66
2023-05-11T12:19:30.913Z,98613.22
2023-05-11T12:21:57.468Z,98609.63
2023-05-11T12:24:24.144Z,98588.28
2023-05-11T12:26:50.777Z,98582.84
2023-05-11T12:29:18.449Z,98594.19
2023-05-11T12:31:46.779Z,98591.53
2023-05-11T12:34:16.281Z,98583.44
2023-05-11T12:36:45.147Z,98567.31
2023-05-11T12:39:22.375Z,98585.97
2023-05-11T12:41:50.412Z,98582.34
2023-05-11T12:44:18.372Z,98559.94
2023-05-11T12:46:47.082Z,98574.16
2023-05-11T12:52:00.025Z,98572.25
2023-05-11T12:54:32.653Z,98574.75
2023-05-11T12:57:01.095Z,98573.78
2023-05-11T12:59:40.788Z,98570.16
2023-05-11T13:02:17.395Z,98574.50
2023-05-11T13:04:45.490Z,98563.06
2023-05-11T13:07:13.798Z,98563.69
2023-05-11T13:09:41.169Z,98562.72
2023-05-11T13:12:14.523Z,98556.41
2023-05-11T13:14:41.847Z,98565.25
2023-05-11T13:17:08.505Z,98550.06
2023-05-11T13:19:35.324Z,98549.06
2023-05-11T13:22:01.952Z,98549.91
2023-05-11T13:24:28.527Z,98535.78
2023-05-11T13:26:57.304Z,98540.03
2023-05-11T13:29:24.226Z,98533.72
2023-05-11T13:31:52.762Z,98534.59
2023-05-11T13:34:20.128Z,98544.25
2023-05-11T13:36:47.216Z,98533.63
2023-05-11T13:39:14.245Z,98536.16
2023-05-11T13:41:40.769Z,98528.06
2023-05-11T13:44:07.831Z,98533.34
2023-05-11T13:46:35.209Z,98527.91
2023-05-11T13:49:01.800Z,98526.13
2023-05-11T13:51:28.374Z,98524.31
2023-05-11T13:53:55.169Z,98531.28
2023-05-11T13:56:22.026Z,98527.69
2023-05-11T13:58:49.004Z,98526.81
2023-05-11T14:01:16.249Z,98523.09
2023-05-11T14:03:45.546Z,98524.75
2023-05-11T14:06:12.569Z,98526.44
2023-05-11T14:08:39.149Z,98526.31
2023-05-11T14:11:05.624Z,98519.22
2023-05-11T14:13:32.246Z,98524.53
2023-05-11T14:15:59.237Z,98526.22
2023-05-11T14:18:26.280Z,98526.06
2023-05-11T14:20:54.364Z,98518.94
2023-05-11T14:23:21.411Z,98514.50
2023-05-11T14:25:47.952Z,98522.31
2023-05-11T14:28:14.711Z,98515.22
2023-05-11T14:30:41.336Z,98514.22
2023-05-11T14:33:08.698Z,98514.13
2023-05-11T14:35:37.047Z,98511.47
2023-05-11T14:38:05.087Z,98512.28
2023-05-11T14:40:32.803Z,98503.50
2023-05-11T14:42:59.495Z,98499.28
2023-05-11T14:45:26.100Z,98507.34
2023-05-11T14:47:53.035Z,98507.63
2023-05-11T14:50:19.704Z,98514.88
2023-05-11T14:52:47.008Z,98521.28
2023-05-11T14:55:14.057Z,98516.94
2023-05-11T14:57:40.936Z,98508.25
2023-05-11T15:00:08.459Z,98504.91
2023-05-11T15:02:35.146Z,98514.78
2023-05-11T15:05:02.035Z,98508.75
2023-05-11T15:07:28.629Z,98514.06
2023-05-11T15:09:55.947Z,98513.22
2023-05-11T15:12:23.416Z,98506.25
2023-05-11T15:14:50.547Z,98499.88
2023-05-11T15:17:17.135Z,98499.13
2023-05-11T15:19:43.679Z,98506.50
2023-05-11T15:22:10.418Z,98506.59
2023-05-11T15:24:37.280Z,98507.72
2023-05-11T15:27:03.968Z,98508.66
2023-05-11T15:29:30.470Z,98508.81
2023-05-11T15:31:57.050Z,98509.72
2023-05-11T15:34:23.596Z,98513.47
2023-05-11T15:36:50.487Z,98514.59
2023-05-11T15:39:19.562Z,98519.19
2023-05-11T15:41:46.585Z,98516.63
2023-05-11T15:44:16.351Z,98508.81
2023-05-11T15:46:46.210Z,98498.56
2023-05-11T15:49:12.897Z,98517.59
2023-05-11T15:51:39.571Z,98507.84
2023-05-11T15:54:06.396Z,98510.97
2023-05-11T15:56:33.000Z,98490.63
2023-05-11T15:58:59.592Z,98489.41
2023-05-11T16:01:26.182Z,98511.91
2023-05-11T16:03:54.878Z,98509.16
2023-05-11T16:06:21.384Z,98511.53
2023-05-11T16:08:48.307Z,98515.88
2023-05-11T16:11:14.831Z,98518.41
2023-05-11T16:13:41.405Z,98506.81
2023-05-11T16:16:11.394Z,98513.81
2023-05-11T16:18:39.077Z,98520.81
2023-05-11T16:21:06.572Z,98510.44
2023-05-11T16:23:33.240Z,98509.84
2023-05-11T16:26:00.680Z,98523.34
2023-05-11T16:28:27.210Z,98527.69
2023-05-11T16:30:57.851Z,98511.75
2023-05-11T16:33:26.149Z,98520.56
2023-05-11T16:35:55.534Z,98524.88
2023-05-11T16:38:22.562Z,98516.94
2023-05-11T16:40:49.917Z,98520.44
2023-05-11T16:43:17.137Z,98523.19
2023-05-11T16:45:44.113Z,98525.75
2023-05-11T16:48:10.970Z,98500.34
2023-05-11T16:50:37.565Z,98525.84
2023-05-11T16:53:04.879Z,98528.50
2023-05-11T16:55:31.393Z,98535.63
2023-05-11T16:57:57.991Z,98528.50
2023-05-11T17:00:25.190Z,98518.53
2023-05-11T17:02:51.965Z,98487.47
2023-05-11T17:05:19.055Z,98530.56
2023-05-11T17:07:46.743Z,98532.13
2023-05-11T17:10:13.645Z,98541.78
2023-05-11T17:12:40.864Z,98516.03
2023-05-11T17:15:09.774Z,98546.13
2023-05-11T17:17:37.769Z,98539.97
2023-05-11T17:20:07.661Z,98552.28
2023-05-11T17:22:38.271Z,98545.28
2023-05-11T17:25:06.272Z,98552.28
2023-05-11T17:27:34.568Z,98553.94
2023-05-11T17:30:01.113Z,98553.13
2023-05-11T17:32:27.780Z,98532.53
2023-05-11T17:34:54.536Z,98548.78
2023-05-11T17:37:31.321Z,98550.59
2023-05-11T17:40:02.460Z,98559.53
2023-05-11T17:42:29.097Z,98548.56
2023-05-11T17:44:55.951Z,98569.28
2023-05-11T17:49:43.843Z,98563.28
2023-05-11T17:52:10.676Z,98572.91
2023-05-11T17:54:37.202Z,98575.56
2023-05-11T17:57:07.026Z,98574.84
2023-05-11T17:59:34.080Z,98554.00
2023-05-11T18:02:01.261Z,98577.63
2023-05-11T18:04:28.234Z,98577.72
2023-05-11T18:06:54.736Z,98585.81
2023-05-11T18:09:21.289Z,98592.97
2023-05-11T18:11:47.928Z,98581.03
2023-05-11T18:14:14.938Z,98589.56
2023-05-11T18:16:41.458Z,98599.34
2023-05-11T18:19:08.185Z,98603.69
2023-05-11T18:21:35.056Z,98602.97
2023-05-11T18:24:01.732Z,98605.84
2023-05-11T18:26:28.286Z,98612.84
2023-05-11T18:28:55.163Z,98608.41
2023-05-11T18:31:22.169Z,98613.00
2023-05-11T18:33:49.246Z,98624.44
2023-05-11T18:36:16.130Z,98622.72
2023-05-11T18:38:46.647Z,98624.56
2023-05-11T18:41:13.251Z,98621.16
2023-05-11T18:43:45.942Z,98633.47
2023-05-11T18:46:12.523Z,98635.50
2023-05-11T18:48:39.127Z,98642.50
2023-05-11T18:51:06.676Z,98639.84
2023-05-11T18:53:33.487Z,98643.47
2023-05-11T18:56:00.567Z,98647.19
2023-05-11T18:58:27.140Z,98648.91
2023-05-11T19:00:53.932Z,98649.84
2023-05-11T19:03:22.057Z,98654.34
2023-05-11T19:05:49.305Z,98628.19
2023-05-11T19:08:16.388Z,98652.75
2023-05-11T19:10:47.871Z,98640.34
2023-05-11T19:13:14.738Z,98671.44
2023-05-11T19:15:41.354Z,98663.47
2023-05-11T19:18:08.108Z,98662.78
2023-05-11T19:20:35.147Z,98667.94
2023-05-11T19:23:02.296Z,98670.81
2023-05-11T19:25:29.092Z,98671.56
2023-05-11T19:27:57.222Z,98675.16
2023-05-11T19:30:24.667Z,98672.53
2023-05-11T19:32:51.372Z,98675.31
2023-05-11T19:35:18.948Z,98676.38
2023-05-11T19:37:48.845Z,98680.75
2023-05-11T19:42:46.137Z,98677.22
2023-05-11T19:45:14.907Z,98679.16
2023-05-11T19:47:41.680Z,98676.63
2023-05-11T19:50:08.927Z,98675.66
2023-05-11T19:52:36.655Z,98682.78
2023-05-11T19:55:06.722Z,98680.13
2023-05-11T19:57:37.170Z,98683.75
2023-05-11T20:00:07.630Z,98681.44
2023-05-11T20:02:35.775Z,98686.66
2023-05-11T20:05:03.843Z,98683.28
2023-05-11T20:07:30.467Z,98672.41
2023-05-11T20:09:57.967Z,98688.44
2023-05-11T20:12:24.481Z,98698.31
2023-05-11T20:14:52.589Z,98677.84
2023-05-11T20:17:19.121Z,98692.44
2023-05-11T20:19:45.674Z,98701.22
2023-05-11T20:22:12.230Z,98691.56
2023-05-11T20:24:38.830Z,98696.03
2023-05-11T20:27:09.422Z,98700.38
2023-05-11T20:29:36.465Z,98693.88
2023-05-11T20:32:03.361Z,98696.03
2023-05-11T20:34:30.129Z,98695.19
2023-05-11T20:36:56.776Z,98693.50
2023-05-11T20:39:23.367Z,98678.78
2023-05-11T20:41:52.740Z,98690.22
2023-05-11T20:44:19.430Z,98699.88
2023-05-11T20:46:47.210Z,98693.00
2023-05-11T20:49:20.140Z,98691.31
2023-05-11T20:51:54.348Z,98688.06
2023-05-11T20:54:22.502Z,98690.50
2023-05-11T20:56:49.917Z,98685.53
2023-05-11T21:01:46.791Z,98691.78
2023-05-11T21:04:13.392Z,98694.34
2023-05-11T21:06:40.359Z,98684.84
2023-05-11T21:09:06.909Z,98691.78
2023-05-11T21:11:33.524Z,98692.78
2023-05-11T21:14:00.158Z,98691.94
2023-05-11T21:16:26.753Z,98689.41
2023-05-11T21:18:54.107Z,98671.53
2023-05-11T21:21:20.762Z,98699.03
2023-05-11T21:23:47.340Z,98703.47
2023-05-11T21:26:17.188Z,98694.22
2023-05-11T21:28:43.701Z,98701.78
2023-05-11T21:31:10.356Z,98697.47
2023-05-11T21:33:37.447Z,98692.53
2023-05-11T21:36:05.808Z,98702.88
2023-05-11T21:38:32.548Z,98704.69
2023-05-11T21:40:59.085Z,98711.78
2023-05-11T21:43:25.683Z,98702.25
2023-05-11T21:45:52.440Z,98707.47
2023-05-11T21:48:19.474Z,98701.19
2023-05-11T21:50:52.250Z,98699.53
2023-05-11T21:53:18.969Z,98701.31
2023-05-11T21:55:45.500Z,98653.28
2023-05-11T21:58:12.473Z,98701.31
2023-05-11T22:00:39.393Z,98706.47
2023-05-11T22:03:06.558Z,98693.59
2023-05-11T22:05:33.181Z,98697.81
2023-05-11T22:08:13.343Z,98693.69
2023-05-11T22:10:42.906Z,98693.47
2023-05-11T22:13:09.526Z,98692.66
2023-05-11T22:15:36.240Z,98698.78
2023-05-11T22:18:06.017Z,98708.44
2023-05-11T22:20:33.156Z,98702.38
2023-05-11T22:22:59.796Z,98688.03
2023-05-11T22:25:28.427Z,98687.31
2023-05-11T22:27:54.981Z,98713.00
2023-05-11T22:30:23.743Z,98706.84
2023-05-11T22:32:50.525Z,98710.47
2023-05-11T22:35:17.182Z,98708.78
2023-05-11T22:37:43.801Z,98706.25
2023-05-11T22:40:10.969Z,98709.72
2023-05-11T22:42:37.949Z,98709.72
2023-05-11T22:45:05.063Z,98696.94
2023-05-11T22:47:31.792Z,98704.78
2023-05-11T22:49:58.921Z,98714.31
2023-05-11T22:52:25.419Z,98707.22
2023-05-11T22:54:57.786Z,98708.16
2023-05-11T22:57:26.180Z,98710.06
2023-05-11T22:59:52.657Z,98712.63
2023-05-11T23:02:19.376Z,98705.63
2023-05-11T23:04:53.528Z,98704.06
2023-05-11T23:07:20.098Z,98695.72
2023-05-11T23:09:47.009Z,98712.72
2023-05-11T23:12:13.584Z,98707.44
2023-05-11T23:14:40.193Z,98699.84
2023-05-11T23:17:06.883Z,98701.41
2023-05-11T23:19:33.682Z,98693.16
2023-05-11T23:22:00.598Z,98699.72
2023-05-11T23:24:28.784Z,98703.22
2023-05-11T23:26:55.444Z,98697.19
2023-05-11T23:29:22.067Z,98688.69
2023-05-11T23:31:48.947Z,98699.84
2023-05-11T23:34:15.749Z,98699.00
2023-05-11T23:36:42.941Z,98698.16
2023-05-11T23:39:09.617Z,98693.81
2023-05-11T23:41:36.348Z,98697.28
2023-05-11T23:44:03.301Z,98699.94
2023-05-11T23:46:29.992Z,98693.81
2023-05-11T23:48:56.494Z,98695.63
2023-05-11T23:51:23.206Z,98702.72
2023-05-11T23:53:49.769Z,98703.59
2023-05-11T23:56:16.385Z,98685.69
2023-05-11T23:58:45.553Z,98701.13
